Saint Clairsville, Pennsylvania
Current Conditions -  °F | °C
As of 9:53 AM on Thursday 30 Oct 2014 (Local Time) from KAOO Reporting Station
Overcast Overcast  
Wind Chill: 41°   Ceiling: 3200
Heat Index: 46°   Visibility: 10mi
Dew Point: 38°   Wind: 9mph
Humidity: 73%   Direction: 300°WNW
Pressure: 30.07"   Gusts: NA
Location:  40.1591°N, 78.5079°W
Report Text: KAOO 301353Z AUTO 30008KT 10SM FEW024 OVC032 08/03 A3007 RMK AO2 SLP188 T00780033
Loading
Personal Weather Stations






























Interactive Weather Map
Tropical Storm Tracking
New forecast layout! Learn more

10-Day Weather Forecast

Advertisements
Track Severe Weather on mobile